Time;durP1;ratioP1;P1;durP2;ratioP2;P2;SDS_P1;SDS_P2;PMS_P1;PMS_P2;Temp;Humidity;BMP_temperature;BMP_pressure;BME280_temperature;BME280_humidity;BME280_pressure;Samples;Min_cycle;Max_cycle;Signal;HPM_P1;HPM_P2
2022/06/07 00:02:06;;;;;;;;;;;;;;;19.83;60.26;99598.06;4485461;32;19988;-87
2022/06/07 00:04:31;;;;;;;;;;;;;;;19.88;60.27;99596.81;4485489;32;19968;-87
2022/06/07 00:06:57;;;;;;;;;;;;;;;19.87;60.27;99595.13;4486245;32;20383;-86
2022/06/07 00:09:22;;;;;;;;;;;;;;;20.12;60.29;99595.97;4471871;32;19995;-87
2022/06/07 00:11:48;;;;;;;;;;;;;;;20.00;60.28;99592.41;4486398;32;19972;-87
2022/06/07 00:14:13;;;;;;;;;;;;;;;19.81;60.27;99598.19;4485795;32;21172;-87
2022/06/07 00:16:38;;;;;;;;;;;;;;;19.76;60.26;99597.69;4471589;32;20303;-87
2022/06/07 00:19:03;;;;;;;;;;;;;;;19.60;60.25;99597.94;4471786;32;19995;-87
2022/06/07 00:21:29;;;;;;;;;;;;;;;19.76;60.26;99589.75;4471491;32;20982;-87
2022/06/07 00:23:54;;;;;;;;;;;;;;;19.50;60.25;99593.41;4471702;32;19965;-86
2022/06/07 00:26:20;;;;;;;;;;;;;;;19.32;60.24;99596.37;4471828;32;19991;-87
2022/06/07 00:28:45;;;;;;;;;;;;;;;19.41;60.25;99597.56;4485891;32;19980;-85
2022/06/07 00:31:10;;;;;;;;;;;;;;;19.24;60.24;99597.87;4485725;32;20032;-87
2022/06/07 00:33:35;;;;;;;;;;;;;;;19.28;60.24;99594.91;4487327;32;19984;-86
2022/06/07 00:36:01;;;;;;;;;;;;;;;19.42;60.24;99593.12;4488218;32;20017;-86
2022/06/07 00:38:26;;;;;;;;;;;;;;;19.51;60.25;99589.81;4473687;32;19984;-87
2022/06/07 00:40:51;;;;;;;;;;;;;;;19.75;60.26;99587.22;4460395;32;19998;-87
2022/06/07 00:43:16;;;;;;;;;;;;;;;19.90;60.27;99583.50;4487621;32;20010;-87
2022/06/07 00:45:42;;;;;;;;;;;;;;;19.90;60.27;99581.69;4487999;32;19988;-87
2022/06/07 00:48:07;;;;;;;;;;;;;;;19.65;60.26;99592.34;4460582;32;19993;-87
2022/06/07 00:50:32;;;;;;;;;;;;;;;19.37;60.23;99588.13;4473640;32;20309;-87
2022/06/07 00:52:59;;;;;;;;;;;;;;;19.26;60.24;99588.91;4488008;32;19968;-87
2022/06/07 00:55:24;;;;;;;;;;;;;;;19.43;60.24;99585.09;4460682;32;20019;-87
2022/06/07 00:57:52;;;;;;;;;;;;;;;19.18;60.23;99585.97;4494063;32;19944;-87
2022/06/07 01:00:18;;;;;;;;;;;;;;;19.10;60.23;99584.78;4496944;32;19980;-88
2022/06/07 01:02:44;;;;;;;;;;;;;;;19.02;60.22;99586.19;4488137;32;20357;-87
2022/06/07 01:05:10;;;;;;;;;;;;;;;19.06;60.22;99576.25;4473569;32;19989;-87
2022/06/07 01:13:03;;;;;;;;;;;;;;;19.21;60.23;99574.34;4487620;32;19985;-87
2022/06/07 01:15:28;;;;;;;;;;;;;;;18.99;60.21;99575.00;4487647;32;19981;-87
2022/06/07 01:17:53;;;;;;;;;;;;;;;19.22;60.23;99582.16;4487510;32;19977;-87
2022/06/07 01:20:18;;;;;;;;;;;;;;;19.09;60.23;99577.84;4487186;32;24333;-87
2022/06/07 01:22:44;;;;;;;;;;;;;;;19.39;60.25;99569.53;4473356;32;19987;-87
2022/06/07 01:25:09;;;;;;;;;;;;;;;19.33;60.24;99571.69;4487722;32;19980;-87
2022/06/07 01:27:34;;;;;;;;;;;;;;;19.20;60.23;99560.31;4473469;32;20325;-87
2022/06/07 01:29:59;;;;;;;;;;;;;;;19.09;60.23;99562.84;4487681;32;19991;-87
2022/06/07 01:32:25;;;;;;;;;;;;;;;19.30;60.23;99571.06;4460221;32;19972;-87
2022/06/07 01:34:50;;;;;;;;;;;;;;;19.26;60.23;99565.16;4472760;32;20838;-87
2022/06/07 01:37:16;;;;;;;;;;;;;;;19.43;60.24;99558.69;4487107;32;19991;-88
2022/06/07 01:42:25;;;;;;;;;;;;;;;19.24;60.23;99561.78;4475439;32;19983;-88
2022/06/07 01:44:50;;;;;;;;;;;;;;;19.27;60.23;99553.66;4472102;32;20012;-88
2022/06/07 01:47:17;;;;;;;;;;;;;;;18.95;60.22;99561.19;4460238;32;20033;-87
2022/06/07 01:49:42;;;;;;;;;;;;;;;18.86;60.21;99556.53;4473298;32;20032;-88
2022/06/07 01:52:07;;;;;;;;;;;;;;;18.84;60.21;99552.31;4459867;32;19987;-88
2022/06/07 01:54:33;;;;;;;;;;;;;;;18.88;60.21;99556.44;4472995;32;20074;-89
2022/06/07 01:56:58;;;;;;;;;;;;;;;18.68;60.20;99556.00;4486754;32;22059;-88
2022/06/07 01:59:23;;;;;;;;;;;;;;;18.89;60.22;99558.13;4487239;32;20322;-88
2022/06/07 02:01:48;;;;;;;;;;;;;;;18.78;60.22;99550.13;4473142;32;19987;-88
2022/06/07 02:04:14;;;;;;;;;;;;;;;19.02;60.23;99545.78;4473028;32;19984;-87
2022/06/07 02:06:39;;;;;;;;;;;;;;;18.85;60.21;99543.47;4473131;32;20348;-88
2022/06/07 02:09:06;;;;;;;;;;;;;;;18.93;60.22;99547.28;4487339;32;19988;-88
2022/06/07 02:11:31;;;;;;;;;;;;;;;18.76;60.20;99541.47;4487445;32;20068;-87
2022/06/07 02:13:56;;;;;;;;;;;;;;;18.49;60.19;99536.25;4472889;32;20310;-88
2022/06/07 02:16:21;;;;;;;;;;;;;;;18.77;60.22;99533.44;4459762;32;20281;-88
2022/06/07 02:18:47;;;;;;;;;;;;;;;18.72;60.20;99538.19;4472886;32;19973;-88
2022/06/07 02:21:12;;;;;;;;;;;;;;;18.69;60.21;99534.00;4459830;32;20223;-88
2022/06/07 02:23:37;;;;;;;;;;;;;;;18.64;60.20;99538.72;4472952;32;20293;-88
2022/06/07 02:26:12;;;;;;;;;;;;;;;18.63;60.20;99531.75;4459880;32;19984;-88
2022/06/07 02:28:38;;;;;;;;;;;;;;;18.45;60.19;99522.41;4472651;32;20006;-88
2022/06/07 02:31:03;;;;;;;;;;;;;;;18.49;60.19;99520.44;4459924;32;19976;-87
2022/06/07 02:33:29;;;;;;;;;;;;;;;18.55;60.20;99520.03;4487149;32;20355;-90
2022/06/07 02:35:54;;;;;;;;;;;;;;;18.78;60.21;99519.31;4459479;32;20000;-88
2022/06/07 02:38:19;;;;;;;;;;;;;;;18.67;60.20;99520.03;4472642;32;20045;-89
2022/06/07 02:40:45;;;;;;;;;;;;;;;18.55;60.20;99526.13;4459861;32;19977;-91
2022/06/07 02:43:10;;;;;;;;;;;;;;;18.92;60.22;99524.44;4487162;32;19991;-88
2022/06/07 02:45:35;;;;;;;;;;;;;;;18.79;60.21;99525.44;4487275;32;20347;-89
2022/06/07 02:48:00;;;;;;;;;;;;;;;18.85;60.21;99525.00;4499283;32;20041;-87
2022/06/07 02:50:26;;;;;;;;;;;;;;;18.50;60.19;99520.34;4474771;32;19972;-86
2022/06/07 02:52:51;;;;;;;;;;;;;;;18.63;60.20;99517.72;4487409;32;20402;-87
2022/06/07 02:55:18;;;;;;;;;;;;;;;18.75;60.20;99519.53;4472523;32;19984;-87
2022/06/07 02:57:43;;;;;;;;;;;;;;;18.75;60.21;99523.97;4472615;32;20039;-86
2022/06/07 03:00:09;;;;;;;;;;;;;;;18.62;60.21;99527.44;4472610;32;20293;-87
2022/06/07 03:02:34;;;;;;;;;;;;;;;18.85;60.21;99522.34;4472627;32;20008;-86
2022/06/07 03:05:00;;;;;;;;;;;;;;;18.90;60.21;99530.78;4472752;32;19996;-87
2022/06/07 03:07:25;;;;;;;;;;;;;;;18.66;60.19;99528.06;4472578;32;19994;-86
2022/06/07 03:09:50;;;;;;;;;;;;;;;18.76;60.21;99526.50;4472649;32;20547;-86
2022/06/07 03:12:16;;;;;;;;;;;;;;;18.66;60.20;99525.41;4486838;32;20336;-87
2022/06/07 03:14:41;;;;;;;;;;;;;;;18.67;60.19;99520.03;4472298;32;20030;-87
2022/06/07 03:17:06;;;;;;;;;;;;;;;18.93;60.22;99517.41;4472779;32;20314;-86
2022/06/07 03:19:32;;;;;;;;;;;;;;;19.02;60.22;99525.50;4472631;32;20017;-87
2022/06/07 03:21:57;;;;;;;;;;;;;;;19.11;60.22;99521.37;4472625;32;19992;-87
2022/06/07 03:24:22;;;;;;;;;;;;;;;19.13;60.22;99521.25;4486467;32;19976;-86
2022/06/07 03:26:47;;;;;;;;;;;;;;;19.11;60.22;99521.37;4472666;32;20028;-87
2022/06/07 03:29:13;;;;;;;;;;;;;;;19.13;60.23;99521.25;4472259;32;20012;-86
2022/06/07 03:31:38;;;;;;;;;;;;;;;19.02;60.22;99525.50;4459417;32;19989;-88
2022/06/07 03:34:03;;;;;;;;;;;;;;;19.30;60.23;99521.75;4459410;32;20030;-87
2022/06/07 03:36:28;;;;;;;;;;;;;;;19.23;60.24;99523.16;4472675;32;19995;-87
2022/06/07 03:38:55;;;;;;;;;;;;;;;19.29;60.23;99522.72;4472400;32;19965;-86
2022/06/07 03:41:22;;;;;;;;;;;;;;;19.40;60.24;99519.31;4459787;32;20011;-87
2022/06/07 03:43:47;;;;;;;;;;;;;;;19.43;60.24;99520.87;4487077;32;20312;-87
2022/06/07 03:46:14;;;;;;;;;;;;;;;19.61;60.25;99511.66;4486847;32;19988;-87
2022/06/07 03:48:42;;;;;;;;;;;;;;;19.64;60.25;99514.09;4472634;32;20021;-87
2022/06/07 03:51:08;;;;;;;;;;;;;;;19.88;60.26;99514.09;4486727;32;19992;-88
2022/06/07 03:53:33;;;;;;;;;;;;;;;19.99;60.27;99519.41;4486768;32;20295;-88
2022/06/07 03:55:58;;;;;;;;;;;;;;;19.69;60.25;99513.75;4486636;32;19987;-88
2022/06/07 03:58:24;;;;;;;;;;;;;;;19.92;60.26;99512.91;4486559;32;19956;-88
2022/06/07 04:00:49;;;;;;;;;;;;;;;19.93;60.26;99509.28;4471775;32;19993;-88
2022/06/07 04:03:14;;;;;;;;;;;;;;;20.00;60.26;99507.03;4459259;32;19992;-88
2022/06/07 04:05:40;;;;;;;;;;;;;;;20.10;60.27;99508.84;4459174;32;19999;-87
2022/06/07 04:08:11;;;;;;;;;;;;;;;20.16;60.27;99499.66;4471478;32;20397;-87
2022/06/07 04:10:43;;;;;;;;;;;;;;;20.57;60.30;99506.22;4471752;32;19984;-88
2022/06/07 04:13:08;;;;;;;;;;;;;;;20.56;60.30;99500.09;4472300;32;20006;-88
2022/06/07 04:15:34;;;;;;;;;;;;;;;20.76;60.30;99483.53;4458973;32;19980;-87
2022/06/07 04:17:59;;;;;;;;;;;;;;;21.01;60.33;99484.25;4486607;32;19987;-88
2022/06/07 04:20:24;;;;;;;;;;;;;;;21.03;60.32;99479.66;4471303;32;26653;-87
2022/06/07 04:22:49;;;;;;;;;;;;;;;21.23;60.33;99478.94;4471504;32;23711;-87
2022/06/07 04:25:15;;;;;;;;;;;;;;;21.04;60.32;99476.91;4472019;32;19999;-87
2022/06/07 04:27:40;;;;;;;;;;;;;;;21.15;60.32;99476.91;4486579;32;20006;-87
2022/06/07 04:30:05;;;;;;;;;;;;;;;21.07;60.32;99473.19;4471555;32;20812;-89
2022/06/07 04:32:31;;;;;;;;;;;;;;;21.34;60.34;99470.16;4471905;32;20076;-88
2022/06/07 04:34:57;;;;;;;;;;;;;;;21.42;60.35;99476.50;4489626;32;19967;-88
2022/06/07 04:37:23;;;;;;;;;;;;;;;21.45;60.34;99467.47;4497986;32;20290;-88
2022/06/07 04:39:48;;;;;;;;;;;;;;;21.57;60.35;99468.28;4472686;32;20049;-89
2022/06/07 04:42:13;;;;;;;;;;;;;;;21.62;60.35;99459.00;4471863;32;20265;-86
2022/06/07 04:44:38;;;;;;;;;;;;;;;21.95;60.36;99467.75;4485267;32;23311;-86
2022/06/07 04:47:04;;;;;;;;;;;;;;;21.69;60.35;99472.56;4485914;32;19982;-86
2022/06/07 04:49:29;;;;;;;;;;;;;;;21.78;60.36;99468.34;4471647;32;20283;-86
2022/06/07 04:51:54;;;;;;;;;;;;;;;21.83;60.37;99467.00;4485773;32;19976;-86
2022/06/07 04:54:19;;;;;;;;;;;;;;;22.05;60.37;99466.06;4485146;32;20191;-86
2022/06/07 04:56:45;;;;;;;;;;;;;;;22.30;60.38;99473.63;4471359;32;20000;-86
2022/06/07 04:59:10;;;;;;;;;;;;;;;22.36;60.38;99473.09;4471209;32;20234;-86
2022/06/07 05:01:36;;;;;;;;;;;;;;;22.57;60.41;99477.56;4457948;32;19992;-86
2022/06/07 05:04:02;;;;;;;;;;;;;;;22.70;60.41;99472.84;4471432;32;20035;-86
2022/06/07 05:06:28;;;;;;;;;;;;;;;22.91;60.42;99472.81;4471140;32;20269;-86
2022/06/07 05:08:54;;;;;;;;;;;;;;;22.95;60.42;99461.84;4471086;32;20014;-86
2022/06/07 05:11:19;;;;;;;;;;;;;;;22.98;60.43;99467.84;4471055;32;19989;-87
2022/06/07 05:13:45;;;;;;;;;;;;;;;22.96;60.41;99467.97;4485075;32;20337;-86
2022/06/07 05:16:10;;;;;;;;;;;;;;;23.39;60.44;99461.50;4470701;32;19960;-86
2022/06/07 05:18:35;;;;;;;;;;;;;;;23.43;60.45;99469.06;4458270;32;20010;-86
2022/06/07 05:21:07;;;;;;;;;;;;;;;23.54;60.45;99468.94;4472881;32;20008;-86
2022/06/07 05:23:32;;;;;;;;;;;;;;;23.67;60.46;99470.53;4487278;32;19972;-86
2022/06/07 05:26:10;;;;;;;;;;;;;;;23.63;60.46;99466.44;4487301;32;19968;-85
2022/06/07 05:28:35;;;;;;;;;;;;;;;23.71;60.45;99475.44;4472885;32;20632;-86
2022/06/07 05:31:01;;;;;;;;;;;;;;;23.90;60.47;99474.59;4472808;32;20019;-86
2022/06/07 05:33:26;;;;;;;;;;;;;;;24.01;60.48;99466.44;4472654;32;20021;-86
2022/06/07 05:35:51;;;;;;;;;;;;;;;24.17;60.48;99471.22;4472857;32;20320;-87
2022/06/07 05:38:17;;;;;;;;;;;;;;;24.29;60.48;99469.25;4486607;32;21830;-86
2022/06/07 05:40:42;;;;;;;;;;;;;;;24.31;60.49;99475.25;4472927;32;20246;-86
2022/06/07 05:43:08;;;;;;;;;;;;;;;24.28;60.49;99475.50;4486347;32;21539;-86
2022/06/07 05:45:33;;;;;;;;;;;;;;;24.53;60.51;99471.41;4472736;32;20356;-86
2022/06/07 05:47:58;;;;;;;;;;;;;;;24.66;60.51;99472.78;4487202;32;19973;-86
2022/06/07 05:50:25;;;;;;;;;;;;;;;24.59;60.50;99476.16;4486766;32;20354;-86
2022/06/07 05:52:50;;;;;;;;;;;;;;;24.63;60.51;99472.25;4473164;32;19976;-86
2022/06/07 05:55:15;;;;;;;;;;;;;;;24.58;60.51;99475.31;4487281;32;20016;-86
2022/06/07 05:57:44;;;;;;;;;;;;;;;24.70;60.52;99471.50;4472650;32;20028;-87
2022/06/07 06:00:10;;;;;;;;;;;;;;;24.92;60.53;99461.47;4460217;32;20073;-86
2022/06/07 06:02:35;;;;;;;;;;;;;;;24.82;60.52;99460.66;4487137;32;20285;-86
2022/06/07 06:05:00;;;;;;;;;;;;;;;24.95;60.53;99467.34;4486809;32;19956;-86
2022/06/07 06:07:25;;;;;;;;;;;;;;;25.20;60.54;99470.31;4471763;32;19992;-87
2022/06/07 06:12:34;;;;;;;;;;;;;;;25.34;60.54;99464.50;4487183;32;20027;-86
2022/06/07 06:15:00;;;;;;;;;;;;;;;25.35;60.55;99456.34;4486781;32;19965;-85
2022/06/07 06:17:25;;;;;;;;;;;;;;;25.46;60.56;99460.63;4472438;32;20960;-87
2022/06/07 06:19:50;;;;;;;;;;;;;;;25.68;60.56;99456.72;4472503;32;20011;-87
2022/06/07 06:22:15;;;;;;;;;;;;;;;25.86;60.58;99468.22;4486561;32;20356;-84
2022/06/07 06:24:40;;;;;;;;;;;;;;;25.76;60.56;99461.25;4472734;32;20227;-86
2022/06/07 06:27:06;;;;;;;;;;;;;;;25.78;60.56;99456.62;4486852;32;20002;-87
2022/06/07 06:29:31;;;;;;;;;;;;;;;26.10;60.59;99456.91;4486424;32;20094;-87
2022/06/07 06:31:56;;;;;;;;;;;;;;;26.10;60.59;99448.06;4472169;32;20024;-86
2022/06/07 06:34:21;;;;;;;;;;;;;;;26.17;60.60;99457.09;4486565;32;19995;-85
2022/06/07 06:36:47;;;;;;;;;;;;;;;26.23;60.59;99446.63;4486999;32;19980;-87
2022/06/07 06:39:13;;;;;;;;;;;;;;;26.46;60.60;99456.81;4472701;32;20029;-87
2022/06/07 06:41:41;;;;;;;;;;;;;;;26.49;60.61;99452.00;4472508;32;19991;-86
2022/06/07 06:44:06;;;;;;;;;;;;;;;26.90;60.63;99452.22;4473262;32;19968;-86
2022/06/07 06:46:33;;;;;;;;;;;;;;;27.21;60.64;99449.88;4472413;32;20016;-86
2022/06/07 06:48:58;;;;;;;;;;;;;;;27.41;60.65;99442.38;4486928;32;19985;-87
2022/06/07 06:51:24;;;;;;;;;;;;;;;27.64;60.66;99439.94;4472561;32;19973;-86
2022/06/07 06:53:49;;;;;;;;;;;;;;;27.73;60.67;99445.16;4459476;32;20028;-87
2022/06/07 06:56:16;;;;;;;;;;;;;;;27.81;60.67;99436.28;4472363;32;20004;-86
2022/06/07 06:58:41;;;;;;;;;;;;;;;28.04;60.68;99436.44;4472551;32;20033;-84
2022/06/07 07:01:13;;;;;;;;;;;;;;;28.20;60.69;99435.59;4486704;32;20028;-86
2022/06/07 07:03:39;;;;;;;;;;;;;;;28.27;60.69;99436.63;4472482;32;20352;-86
2022/06/07 07:06:05;;;;;;;;;;;;;;;28.29;60.71;99437.28;4486763;32;19991;-85
2022/06/07 07:08:30;;;;;;;;;;;;;;;28.34;60.70;99433.09;4486840;32;19973;-86
2022/06/07 07:11:10;;;;;;;;;;;;;;;28.31;60.71;99432.59;4486598;32;19981;-86
2022/06/07 07:13:36;;;;;;;;;;;;;;;28.53;60.71;99431.88;4486655;32;20033;-88
2022/06/07 07:16:02;;;;;;;;;;;;;;;28.67;60.72;99425.81;4486756;32;20020;-86
2022/06/07 07:18:27;;;;;;;;;;;;;;;28.78;60.71;99429.09;4472511;32;19992;-84
2022/06/07 07:20:52;;;;;;;;;;;;;;;28.84;60.72;99429.25;4471581;32;30890;-84
2022/06/07 07:23:17;;;;;;;;;;;;;;;28.97;60.73;99429.56;4486659;32;19971;-84
2022/06/07 07:25:43;;;;;;;;;;;;;;;29.12;60.74;99423.47;4486154;32;20986;-85
2022/06/07 07:28:08;;;;;;;;;;;;;;;29.09;60.75;99421.94;4471866;32;20246;-85
2022/06/07 07:30:33;;;;;;;;;;;;;;;28.78;60.72;99415.72;4486257;32;19980;-84
2022/06/07 07:32:58;;;;;;;;;;;;;;;29.03;60.74;99415.47;4472240;32;19985;-84
2022/06/07 07:35:24;;;;;;;;;;;;;;;28.84;60.73;99410.50;4485972;32;23799;-85
2022/06/07 07:37:49;;;;;;;;;;;;;;;28.94;60.74;99413.00;4472087;32;19985;-84
2022/06/07 07:40:14;;;;;;;;;;;;;;;28.83;60.73;99410.66;4486466;32;19973;-86
2022/06/07 07:42:41;;;;;;;;;;;;;;;29.15;60.74;99415.06;4470364;32;19965;-84
2022/06/07 07:45:06;;;;;;;;;;;;;;;28.82;60.73;99409.84;4472358;32;19992;-84
2022/06/07 07:47:32;;;;;;;;;;;;;;;29.00;60.74;99414.97;4486483;32;19991;-84
2022/06/07 07:49:57;;;;;;;;;;;;;;;29.16;60.74;99412.22;4486387;32;20227;-83
2022/06/07 07:52:23;;;;;;;;;;;;;;;29.21;60.75;99409.00;4471689;32;19968;-84
2022/06/07 07:54:49;;;;;;;;;;;;;;;29.31;60.75;99409.59;4486439;32;19984;-84
2022/06/07 07:57:14;;;;;;;;;;;;;;;29.43;60.77;99405.50;4471774;32;19992;-83
2022/06/07 07:59:39;;;;;;;;;;;;;;;29.64;60.78;99405.72;4471975;32;19994;-84
2022/06/07 08:02:04;;;;;;;;;;;;;;;30.02;60.79;99405.72;4485715;32;20676;-84
2022/06/07 08:04:29;;;;;;;;;;;;;;;30.31;60.80;99409.50;4485803;32;20245;-83
2022/06/07 08:06:55;;;;;;;;;;;;;;;30.63;60.82;99401.09;4486262;32;19991;-83
2022/06/07 08:09:22;;;;;;;;;;;;;;;30.85;60.84;99392.09;4486186;32;19973;-82
2022/06/07 08:11:47;;;;;;;;;;;;;;;30.97;60.84;99392.41;4486201;32;20007;-82
2022/06/07 08:14:14;;;;;;;;;;;;;;;31.00;60.84;99402.00;4486051;32;20273;-82
2022/06/07 08:16:40;;;;;;;;;;;;;;;31.04;60.84;99395.22;4486153;32;20029;-81
2022/06/07 08:19:08;;;;;;;;;;;;;;;31.47;60.87;99390.75;4486056;32;20313;-82
2022/06/07 08:21:33;;;;;;;;;;;;;;;31.76;60.88;99384.41;4486041;32;20007;-82
2022/06/07 08:23:58;;;;;;;;;;;;;;;31.89;60.88;99380.97;4471532;32;20318;-81
2022/06/07 08:26:25;;;;;;;;;;;;;;;32.05;60.90;99386.91;4485882;32;20332;-82
2022/06/07 08:28:51;;;;;;;;;;;;;;;32.33;60.91;99383.37;4485855;32;20374;-81
2022/06/07 08:31:17;;;;;;;;;;;;;;;32.49;60.91;99376.84;4485878;32;19969;-81
2022/06/07 08:39:10;;;;;;;;;;;;;;;33.05;60.95;99379.38;4485762;32;20642;-80
2022/06/07 08:41:45;;;;;;;;;;;;;;;33.17;60.96;99365.12;4485506;32;20297;-81
2022/06/07 08:44:13;;;;;;;;;;;;;;;33.50;60.96;99372.44;4485699;32;20317;-81
2022/06/07 08:46:38;;;;;;;;;;;;;;;33.77;60.98;99365.19;4485709;32;20014;-81
2022/06/07 08:49:04;;;;;;;;;;;;;;;33.84;60.98;99366.91;4470579;32;29389;-81
2022/06/07 08:51:31;;;;;;;;;;;;;;;33.89;60.99;99368.16;4485526;32;20002;-81
2022/06/07 08:53:58;;;;;;;;;;;;;;;34.20;61.00;99362.06;4486455;32;19996;-81
2022/06/07 08:56:27;;;;;;;;;;;;;;;34.26;61.00;99358.50;4473299;32;20344;-81
2022/06/07 08:58:53;;;;;;;;;;;;;;;34.21;61.00;99361.03;4473382;32;20358;-81
2022/06/07 09:01:30;;;;;;;;;;;;;;;34.37;61.02;99356.03;4473219;32;19965;-81
2022/06/07 09:04:06;;;;;;;;;;;;;;;34.30;61.01;99371.38;4473259;32;20040;-81
2022/06/07 09:06:33;;;;;;;;;;;;;;;34.26;61.00;99364.75;4473423;32;20036;-81
2022/06/07 09:08:58;;;;;;;;;;;;;;;34.41;61.02;99359.97;4460190;32;19988;-81
2022/06/07 09:14:11;;;;;;;;;;;;;;;34.55;61.02;99362.63;4487442;32;19995;-81
2022/06/07 09:16:40;;;;;;;;;;;;;;;34.62;61.03;99360.72;4473173;32;19995;-81
2022/06/07 09:19:14;;;;;;;;;;;;;;;34.70;61.03;99355.91;4487530;32;19984;-81
2022/06/07 09:21:40;;;;;;;;;;;;;;;34.49;61.02;99358.88;4473073;32;19972;-81
2022/06/07 09:24:09;;;;;;;;;;;;;;;34.40;61.01;99352.91;4473136;32;19992;-82
2022/06/07 09:26:37;;;;;;;;;;;;;;;34.30;61.01;99357.88;4473232;32;19980;-82
2022/06/07 09:29:07;;;;;;;;;;;;;;;34.29;61.01;99350.81;4473143;32;20051;-81
2022/06/07 09:31:32;;;;;;;;;;;;;;;34.53;61.01;99343.06;4473160;32;19987;-82
2022/06/07 09:34:02;;;;;;;;;;;;;;;34.57;61.02;99338.94;4459585;32;23243;-81
2022/06/07 09:36:28;;;;;;;;;;;;;;;34.38;61.02;99341.47;4473199;32;20334;-82
2022/06/07 09:39:01;;;;;;;;;;;;;;;34.05;61.00;99337.97;4472950;32;19999;-81
2022/06/07 09:41:38;;;;;;;;;;;;;;;34.13;61.01;99343.19;4472973;32;20348;-82
2022/06/07 09:44:05;;;;;;;;;;;;;;;34.27;61.01;99339.38;4487266;32;20007;-82
2022/06/07 09:46:32;;;;;;;;;;;;;;;34.37;61.02;99339.81;4473075;32;20037;-82
2022/06/07 09:48:57;;;;;;;;;;;;;;;34.26;61.01;99337.72;4473180;32;19982;-82
2022/06/07 09:51:23;;;;;;;;;;;;;;;34.09;61.00;99329.28;4487330;32;20226;-82
2022/06/07 09:53:55;;;;;;;;;;;;;;;34.12;61.01;99333.41;4472911;32;19988;-81
2022/06/07 09:56:25;;;;;;;;;;;;;;;34.27;61.01;99328.56;4470149;32;19997;-82
2022/06/07 09:59:09;;;;;;;;;;;;;;;34.62;61.03;99322.87;4470363;32;19994;-82
2022/06/07 10:01:54;;;;;;;;;;;;;;;34.90;61.04;99323.41;4471506;32;20324;-82
2022/06/07 10:04:38;;;;;;;;;;;;;;;34.84;61.03;99324.25;4471495;32;20037;-81
2022/06/07 10:07:05;;;;;;;;;;;;;;;34.65;61.03;99320.56;4470111;32;19993;-82
2022/06/07 10:09:39;;;;;;;;;;;;;;;34.92;61.04;99315.06;4470607;32;19981;-82
2022/06/07 10:12:11;;;;;;;;;;;;;;;35.25;61.06;99306.72;4471677;32;19966;-82
2022/06/07 10:14:41;;;;;;;;;;;;;;;35.61;61.07;99298.75;4470473;32;20007;-82
2022/06/07 10:17:06;;;;;;;;;;;;;;;35.54;61.07;99303.41;4457428;32;19985;-82
2022/06/07 10:19:41;;;;;;;;;;;;;;;35.46;61.07;99309.09;4471651;32;20004;-82
2022/06/07 10:22:25;;;;;;;;;;;;;;;35.07;61.05;99304.78;4470331;32;20004;-82
2022/06/07 10:24:53;;;;;;;;;;;;;;;34.88;61.04;99298.44;4471412;32;20326;-82
2022/06/07 10:27:29;;;;;;;;;;;;;;;34.73;61.03;99306.81;4471370;32;19995;-81
2022/06/07 10:30:04;;;;;;;;;;;;;;;34.97;61.05;99297.13;4470063;32;19977;-82
2022/06/07 10:32:47;;;;;;;;;;;;;;;34.95;61.05;99287.56;4471336;32;19965;-82
2022/06/07 10:35:21;;;;;;;;;;;;;;;35.21;61.06;99297.38;4470146;32;20006;-82
2022/06/07 10:38:08;;;;;;;;;;;;;;;35.50;61.08;99294.09;4471235;32;20348;-82
2022/06/07 10:40:35;;;;;;;;;;;;;;;35.37;61.06;99280.66;4470033;32;20000;-82
2022/06/07 10:43:02;;;;;;;;;;;;;;;35.08;61.05;99277.50;4470139;32;19973;-82
2022/06/07 10:45:30;;;;;;;;;;;;;;;35.33;61.07;99279.41;4470024;32;20011;-82
2022/06/07 10:48:01;;;;;;;;;;;;;;;35.51;61.08;99281.38;4456975;32;19980;-82
2022/06/07 10:50:28;;;;;;;;;;;;;;;35.73;61.08;99276.34;4471187;32;19973;-82
2022/06/07 10:53:02;;;;;;;;;;;;;;;35.72;61.08;99266.56;4456862;32;20033;-82
2022/06/07 10:55:54;;;;;;;;;;;;;;;35.88;61.10;99256.03;4469869;32;20408;-82
2022/06/07 10:58:19;;;;;;;;;;;;;;;35.82;61.09;99262.31;4457713;32;20006;-82
2022/06/07 11:00:48;;;;;;;;;;;;;;;35.74;61.09;99254.50;4469661;32;20238;-82
2022/06/07 11:03:16;;;;;;;;;;;;;;;35.75;61.09;99253.44;4469906;32;20012;-82
2022/06/07 11:11:16;;;;;;;;;;;;;;;36.06;61.10;99238.94;4471079;32;20027;-82
2022/06/07 11:13:44;;;;;;;;;;;;;;;36.29;61.12;99239.09;4471030;32;20000;-82
2022/06/07 11:16:16;;;;;;;;;;;;;;;36.50;61.12;99236.97;4469402;32;19996;-82
2022/06/07 11:18:41;;;;;;;;;;;;;;;36.51;61.12;99225.06;4471092;32;19981;-83
2022/06/07 11:21:06;;;;;;;;;;;;;;;36.47;61.13;99234.72;4469420;32;19981;-83
2022/06/07 11:23:35;;;;;;;;;;;;;;;36.32;61.12;99228.88;4470877;32;19988;-82
2022/06/07 11:26:08;;;;;;;;;;;;;;;36.20;61.10;99226.91;4469759;32;20036;-82
2022/06/07 11:28:34;;;;;;;;;;;;;;;36.35;61.12;99223.00;4469760;32;19999;-83
2022/06/07 11:31:01;;;;;;;;;;;;;;;36.29;61.12;99225.53;4469717;32;19977;-82
2022/06/07 11:33:38;;;;;;;;;;;;;;;36.55;61.13;99213.53;4469709;32;19969;-82
2022/06/07 11:36:03;;;;;;;;;;;;;;;36.66;61.13;99208.34;4469623;32;20382;-82
2022/06/07 11:38:29;;;;;;;;;;;;;;;36.86;61.14;99209.75;4469535;32;20017;-82
2022/06/07 11:41:36;;;;;;;;;;;;;;;36.89;61.14;99214.72;4470705;32;19994;-82
2022/06/07 11:44:00;;;;;;;;;;;;;;;36.81;61.14;99206.91;4469857;32;20024;-82
2022/06/07 11:46:25;;;;;;;;;;;;;;;36.56;61.13;99211.66;4469765;32;20004;-82
2022/06/07 11:48:51;;;;;;;;;;;;;;;35.94;61.09;99205.53;4470841;32;20326;-82
2022/06/07 11:51:17;;;;;;;;;;;;;;;35.82;61.09;99202.72;4469548;32;20018;-82
2022/06/07 11:53:49;;;;;;;;;;;;;;;35.67;61.09;99200.37;4469462;32;19976;-82
2022/06/07 11:56:27;;;;;;;;;;;;;;;35.87;61.09;99194.78;4471916;32;20015;-82
2022/06/07 11:58:53;;;;;;;;;;;;;;;35.94;61.09;99194.69;4459035;32;20019;-82
2022/06/07 12:01:38;;;;;;;;;;;;;;;35.68;61.08;99188.50;4471968;32;19968;-82
2022/06/07 12:04:23;;;;;;;;;;;;;;;35.67;61.09;99191.44;4472038;32;20343;-82
2022/06/07 12:06:49;;;;;;;;;;;;;;;35.47;61.07;99186.22;4486473;32;19998;-82
2022/06/07 12:09:14;;;;;;;;;;;;;;;35.15;61.06;99182.75;4472147;32;19984;-82
2022/06/07 12:11:40;;;;;;;;;;;;;;;35.15;61.06;99182.75;4471954;32;19980;-82
2022/06/07 12:14:05;;;;;;;;;;;;;;;35.10;61.06;99179.06;4472161;32;19981;-82
2022/06/07 12:16:37;;;;;;;;;;;;;;;35.13;61.06;99186.75;4486378;32;19992;-82
2022/06/07 12:19:04;;;;;;;;;;;;;;;35.47;61.07;99180.81;4486446;32;20258;-82
2022/06/07 12:21:32;;;;;;;;;;;;;;;35.33;61.07;99180.09;4471953;32;20029;-82
2022/06/07 12:24:09;;;;;;;;;;;;;;;35.23;61.06;99187.06;4471947;32;20363;-82
2022/06/07 12:26:34;;;;;;;;;;;;;;;35.14;61.06;99173.00;4486034;32;19984;-82
2022/06/07 12:29:20;;;;;;;;;;;;;;;34.83;61.04;99173.84;4472500;32;20022;-82
2022/06/07 12:31:47;;;;;;;;;;;;;;;34.44;61.03;99170.37;4487202;32;19995;-82
2022/06/07 12:34:28;;;;;;;;;;;;;;;34.59;61.04;99169.25;4473639;32;20041;-81
2022/06/07 12:36:59;;;;;;;;;;;;;;;34.82;61.05;99172.19;4487603;32;19989;-82
2022/06/07 12:39:24;;;;;;;;;;;;;;;34.91;61.04;99162.78;4473731;32;20003;-82
2022/06/07 12:41:49;;;;;;;;;;;;;;;35.06;61.05;99166.00;4473332;32;19988;-82
2022/06/07 12:44:41;;;;;;;;;;;;;;;35.12;61.06;99163.44;4487824;32;19994;-82
2022/06/07 12:47:06;;;;;;;;;;;;;;;34.80;61.04;99163.47;4473335;32;19996;-82
2022/06/07 12:49:33;;;;;;;;;;;;;;;34.85;61.05;99162.84;4473502;32;20242;-82
2022/06/07 12:52:05;;;;;;;;;;;;;;;34.66;61.03;99159.19;4473346;32;20075;-82
2022/06/07 12:54:33;;;;;;;;;;;;;;;34.86;61.05;99159.91;4487747;32;19976;-82
2022/06/07 12:56:59;;;;;;;;;;;;;;;35.00;61.06;99158.75;4473517;32;20036;-82
2022/06/07 12:59:27;;;;;;;;;;;;;;;35.08;61.05;99158.47;4473404;32;20007;-82
2022/06/07 13:01:52;;;;;;;;;;;;;;;35.23;61.06;99152.72;4487510;32;19976;-82
2022/06/07 13:04:29;;;;;;;;;;;;;;;35.19;61.06;99154.22;4473070;32;20009;-82
2022/06/07 13:07:24;;;;;;;;;;;;;;;35.30;61.07;99148.06;4460313;32;19988;-82
2022/06/07 13:09:52;;;;;;;;;;;;;;;35.39;61.07;99137.81;4470437;32;19976;-82
2022/06/07 13:12:19;;;;;;;;;;;;;;;35.20;61.07;99138.81;4473540;32;19984;-82
2022/06/07 13:14:44;;;;;;;;;;;;;;;34.86;61.05;99140.16;4460185;32;20430;-82